Time;durP1;ratioP1;P1;durP2;ratioP2;P2;SDS_P1;SDS_P2;PMS_P1;PMS_P2;Temp;Humidity;BMP_temperature;BMP_pressure;BME280_temperature;BME280_humidity;BME280_pressure;Samples;Min_cycle;Max_cycle;Signal;HPM_P1;HPM_P2
2022/06/03 00:02:33;;;;;;;;;5.00;3.25;;;;;20.26;35.36;101146.81;5055232;28;45484;-57
2022/06/03 00:05:04;;;;;;;;;3.75;3.75;;;;;20.27;35.64;101156.56;5054978;28;45442;-60
2022/06/03 00:08:02;;;;;;;;;6.00;5.00;;;;;20.24;35.54;101154.28;5055155;28;45407;-60
2022/06/03 00:10:55;;;;;;;;;5.50;3.00;;;;;20.22;35.65;101145.53;5055197;28;45455;-58
2022/06/03 00:13:50;;;;;;;;;4.00;3.25;;;;;20.20;35.37;101137.63;5080678;27;45401;-57
2022/06/03 00:16:49;;;;;;;;;3.00;3.00;;;;;20.18;35.81;101134.28;5054192;28;46282;-59
2022/06/03 00:19:40;;;;;;;;;2.00;2.00;;;;;20.12;35.80;101118.91;5054871;28;45368;-59
2022/06/03 00:22:29;;;;;;;;;3.00;3.00;;;;;20.13;35.74;101121.38;5054909;28;45847;-57
2022/06/03 00:24:58;;;;;;;;;3.00;3.00;;;;;20.11;35.82;101134.28;5039034;28;45588;-60
2022/06/03 00:27:39;;;;;;;;;1.75;1.00;;;;;20.09;35.95;101130.09;5034439;28;45379;-59
2022/06/03 00:30:37;;;;;;;;;5.25;4.00;;;;;20.06;35.72;101127.81;5033339;28;45373;-58
2022/06/03 00:33:39;;;;;;;;;5.67;4.00;;;;;20.04;36.04;101127.16;5014458;28;45528;-57
2022/06/03 00:36:27;;;;;;;;;8.00;5.25;;;;;20.01;36.57;101122.97;5015018;28;45421;-60
2022/06/03 00:39:01;;;;;;;;;6.67;5.00;;;;;19.97;36.39;101119.00;5013581;28;46468;-58
2022/06/03 00:42:03;;;;;;;;;5.75;3.00;;;;;19.95;36.18;101118.41;5014298;28;45447;-55
2022/06/03 00:44:50;;;;;;;;;3.25;3.25;;;;;19.93;36.51;101124.00;5014323;28;45179;-59
2022/06/03 00:47:36;;;;;;;;;4.00;4.00;;;;;19.92;36.44;101121.47;5014829;28;45523;-58
2022/06/03 00:50:49;;;;;;;;;4.00;4.00;;;;;19.90;36.54;101118.16;5014469;28;46117;-60
2022/06/03 00:53:39;;;;;;;;;4.67;3.00;;;;;19.87;36.82;101127.47;4936172;28;45539;-56
2022/06/03 00:56:32;;;;;;;;;5.67;5.00;;;;;19.86;37.06;101130.41;4936336;28;45403;-53
2022/06/03 00:59:34;;;;;;;;;3.67;3.33;;;;;19.82;37.21;101132.66;4937922;28;45397;-54
2022/06/03 01:02:21;;;;;;;;;3.00;3.00;;;;;19.81;36.95;101131.00;4939542;28;46276;-54
2022/06/03 01:05:05;;;;;;;;;4.33;4.33;;;;;19.79;37.52;101127.63;4939399;28;45487;-51
2022/06/03 01:07:47;;;;;;;;;4.75;4.75;;;;;19.76;37.05;101133.44;4939658;28;45447;-53
2022/06/03 01:10:38;;;;;;;;;5.00;5.00;;;;;19.75;37.29;101122.84;4965717;28;45647;-53
2022/06/03 01:13:32;;;;;;;;;3.25;3.25;;;;;19.74;37.66;101119.31;4978137;28;45557;-54
2022/06/03 01:16:23;;;;;;;;;4.00;4.00;;;;;19.71;37.47;101110.75;4978015;28;45609;-53
2022/06/03 01:19:20;;;;;;;;;7.33;5.00;;;;;19.72;37.80;101120.53;4978397;28;45425;-53
2022/06/03 01:22:19;;;;;;;;;4.00;4.00;;;;;19.67;37.44;101121.94;4920050;28;45506;-54
2022/06/03 01:25:13;;;;;;;;;3.67;3.67;;;;;19.65;37.67;101129.41;4933251;28;46339;-54
2022/06/03 01:28:27;;;;;;;;;4.33;4.33;;;;;19.64;37.68;101126.94;4939089;28;45406;-52
2022/06/03 01:31:01;;;;;;;;;4.00;4.00;;;;;19.62;37.68;101128.97;4919515;28;45352;-54
2022/06/03 01:34:02;;;;;;;;;4.67;3.00;;;;;19.62;37.37;101123.59;4920300;28;45412;-58
2022/06/03 01:36:46;;;;;;;;;3.67;3.67;;;;;19.60;37.80;101121.06;4919673;28;45421;-54
2022/06/03 01:39:39;;;;;;;;;5.00;3.00;;;;;19.58;37.61;101117.72;4919912;28;45327;-51
2022/06/03 01:42:36;;;;;;;;;4.00;4.00;;;;;19.57;37.18;101118.75;4919615;28;45568;-53
2022/06/03 01:45:12;;;;;;;;;4.00;4.00;;;;;19.56;37.39;101121.66;4919803;28;45548;-57
2022/06/03 01:48:04;;;;;;;;;4.33;2.67;;;;;19.54;37.45;101118.28;4919366;28;46198;-53
2022/06/03 01:50:32;;;;;;;;;4.00;4.00;;;;;19.53;37.82;101106.66;4919595;28;45430;-53
2022/06/03 01:53:36;;;;;;;;;5.00;3.67;;;;;19.50;37.72;101107.06;4919676;28;45346;-54
2022/06/03 01:56:21;;;;;;;;;2.67;2.00;;;;;19.39;37.69;101077.94;4900639;28;45438;-54
2022/06/03 01:58:55;;;;;;;;;6.00;4.33;;;;;19.45;37.74;101096.03;4919330;28;46636;-60
2022/06/03 02:01:46;;;;;;;;;3.00;3.00;;;;;19.43;38.06;101092.72;4919664;28;45371;-53
2022/06/03 02:04:43;;;;;;;;;3.33;3.00;;;;;19.41;37.96;101095.59;4920008;28;45396;-54
2022/06/03 02:07:37;;;;;;;;;5.00;3.33;;;;;19.39;38.16;101097.66;4952269;28;45439;-59
2022/06/03 02:10:26;;;;;;;;;4.00;3.00;;;;;19.36;37.89;101089.94;4977226;28;45507;-52
2022/06/03 02:12:54;;;;;;;;;5.00;4.00;;;;;19.37;38.21;101079.97;4922064;28;45948;-52
2022/06/03 02:15:37;;;;;;;;;5.67;4.00;;;;;19.33;37.85;101076.84;4938596;28;45345;-53
2022/06/03 02:18:02;;;;;;;;;4.33;4.00;;;;;19.34;38.22;101077.66;4938668;28;45304;-55
2022/06/03 02:20:42;;;;;;;;;4.00;4.00;;;;;19.32;38.14;101068.97;4938229;28;46193;-54
2022/06/03 02:23:28;;;;;;;;;2.33;2.33;;;;;19.29;38.21;101062.06;4938587;28;45413;-60
2022/06/03 02:25:53;;;;;;;;;4.00;4.00;;;;;19.27;38.46;101056.06;4957783;28;45420;-51
2022/06/03 02:28:31;;;;;;;;;2.67;2.67;;;;;19.23;38.54;101057.47;4957730;28;45449;-57
2022/06/03 02:31:31;;;;;;;;;4.33;4.33;;;;;19.23;38.65;101056.66;4957606;28;47373;-54
2022/06/03 02:34:02;;;;;;;;;4.00;4.00;;;;;19.19;38.67;101051.63;4991454;28;45468;-56
2022/06/03 02:36:48;;;;;;;;;5.00;3.67;;;;;19.17;38.80;101048.31;4996731;28;45241;-57
2022/06/03 02:39:19;;;;;;;;;5.00;4.00;;;;;19.15;38.94;101053.06;4977042;28;45556;-54
2022/06/03 02:41:44;;;;;;;;;2.67;2.67;;;;;19.14;39.08;101042.47;4976724;28;45517;-53
2022/06/03 02:44:22;;;;;;;;;5.00;4.00;;;;;19.13;39.20;101046.19;4960493;28;45422;-53
2022/06/03 02:47:06;;;;;;;;;4.00;4.00;;;;;19.10;39.00;101033.94;4977124;28;45396;-53
2022/06/03 02:50:13;;;;;;;;;4.00;4.00;;;;;19.08;39.17;101041.38;4983276;28;45567;-56
2022/06/03 02:52:44;;;;;;;;;3.33;3.33;;;;;19.06;39.37;101040.75;4979657;28;45588;-53
2022/06/03 02:55:25;;;;;;;;;2.00;2.00;;;;;19.06;39.06;101040.75;4996502;28;46066;-57
2022/06/03 02:57:56;;;;;;;;;7.67;3.00;;;;;19.05;39.30;101039.09;4996446;28;45436;-53
2022/06/03 03:00:25;;;;;;;;;4.67;4.67;;;;;19.04;39.22;101037.41;4996467;28;45421;-53
2022/06/03 03:03:02;;;;;;;;;6.00;5.00;;;;;19.03;39.01;101034.91;4995705;28;45413;-54
2022/06/03 03:05:55;;;;;;;;;4.67;4.00;;;;;19.02;39.40;101039.47;4996187;28;45372;-54
2022/06/03 03:08:55;;;;;;;;;5.33;5.00;;;;;18.99;39.37;101030.94;4996650;28;45359;-57
2022/06/03 03:11:42;;;;;;;;;4.00;4.00;;;;;18.97;39.45;101024.91;4937858;28;45825;-53
2022/06/03 03:14:43;;;;;;;;;5.33;4.00;;;;;18.93;39.36;101029.88;4937592;28;45969;-52
2022/06/03 03:17:14;;;;;;;;;4.67;4.67;;;;;18.91;39.91;101034.59;4977935;28;45372;-52
2022/06/03 03:19:49;;;;;;;;;2.67;2.67;;;;;18.89;39.78;101033.97;4996344;28;45465;-52
2022/06/03 03:22:35;;;;;;;;;5.00;5.00;;;;;18.89;39.79;101036.66;4995372;28;45530;-52
2022/06/03 03:25:22;;;;;;;;;2.33;2.33;;;;;18.86;39.86;101035.19;4995758;28;46481;-55
2022/06/03 03:27:53;;;;;;;;;3.00;3.00;;;;;18.83;40.12;101032.88;4995789;28;45422;-56
2022/06/03 03:30:49;;;;;;;;;3.00;3.00;;;;;18.81;40.35;101034.09;4995778;28;45462;-58
2022/06/03 03:33:34;;;;;;;;;4.33;3.67;;;;;18.80;39.89;101040.53;4988925;28;45541;-58
2022/06/03 03:36:44;;;;;;;;;3.00;3.00;;;;;18.77;40.36;101047.13;4995563;28;45365;-54
2022/06/03 03:39:51;;;;;;;;;3.67;3.67;;;;;18.75;40.12;101029.47;4995890;28;45454;-54
2022/06/03 03:42:49;;;;;;;;;5.67;5.67;;;;;18.73;40.19;101028.84;4995596;28;45449;-54
2022/06/03 03:45:30;;;;;;;;;5.00;3.00;;;;;18.72;40.41;101035.28;4995785;28;45449;-53
2022/06/03 03:47:55;;;;;;;;;5.00;5.00;;;;;18.70;40.74;101028.19;4995307;28;46235;-58
2022/06/03 03:50:54;;;;;;;;;9.00;4.00;;;;;18.71;40.84;101034.44;4995446;28;45566;-55
2022/06/03 03:53:41;;;;;;;;;4.00;4.00;;;;;18.70;40.26;101028.19;4995895;28;45398;-54
2022/06/03 03:56:32;;;;;;;;;3.67;3.00;;;;;18.69;40.64;101031.06;4995974;28;45408;-54
2022/06/03 03:59:35;;;;;;;;;4.67;4.33;;;;;18.68;40.91;101030.22;4980158;28;47245;-52
2022/06/03 04:02:34;;;;;;;;;4.33;4.33;;;;;18.70;40.70;101020.09;4994336;28;45409;-54
2022/06/03 04:05:17;;;;;;;;;7.00;5.00;;;;;18.70;40.72;101028.19;4995257;28;45237;-54
2022/06/03 04:08:01;;;;;;;;;4.00;4.00;;;;;18.71;40.88;101029.06;4995399;28;45549;-53
2022/06/03 04:10:41;;;;;;;;;4.00;4.00;;;;;18.73;41.06;101031.53;4995052;28;46119;-54
2022/06/03 04:13:09;;;;;;;;;4.00;4.00;;;;;18.75;41.21;101021.38;4995013;28;45330;-58
2022/06/03 04:15:41;;;;;;;;;4.67;4.00;;;;;18.77;40.93;101030.13;5015460;28;45419;-52
2022/06/03 04:18:48;;;;;;;;;4.00;4.00;;;;;18.79;40.99;101023.50;5077418;28;45362;-52
2022/06/03 04:21:35;;;;;;;;;5.00;4.00;;;;;18.82;40.95;101031.22;5077393;28;45498;-59
2022/06/03 04:24:30;;;;;;;;;4.00;4.00;;;;;18.84;40.92;101034.56;5059042;28;45234;-54
2022/06/03 04:27:40;;;;;;;;;6.33;5.33;;;;;18.86;40.79;101028.97;5076476;27;45361;-55
2022/06/03 04:30:08;;;;;;;;;5.00;5.00;;;;;18.88;40.95;101022.38;5077291;28;45509;-54
2022/06/03 04:32:52;;;;;;;;;3.00;3.00;;;;;18.89;40.85;101021.31;5076500;28;47169;-55
2022/06/03 04:35:47;;;;;;;;;4.00;4.00;;;;;18.93;40.31;101029.88;5077148;28;45344;-54
2022/06/03 04:38:15;;;;;;;;;6.67;4.00;;;;;18.95;40.89;101019.69;5077408;28;45696;-54
2022/06/03 04:41:19;;;;;;;;;4.00;4.00;;;;;18.99;40.95;101039.03;5077299;28;45482;-55
2022/06/03 04:43:59;;;;;;;;;4.33;4.33;;;;;19.02;41.11;101038.66;5077141;28;46187;-53
2022/06/03 04:46:52;;;;;;;;;4.00;4.00;;;;;19.05;41.04;101041.78;5077202;28;45182;-53
2022/06/03 04:49:23;;;;;;;;;7.00;4.00;;;;;19.12;41.04;101041.81;5077136;28;45272;-53
2022/06/03 04:52:19;;;;;;;;;3.33;3.00;;;;;19.17;40.93;101045.63;5077095;28;45323;-55
2022/06/03 04:55:02;;;;;;;;;6.00;5.00;;;;;19.22;40.57;101036.94;5076659;28;46630;-53
2022/06/03 04:57:45;;;;;;;;;6.00;5.33;;;;;19.25;40.66;101041.09;5076896;28;45378;-56
2022/06/03 05:00:24;;;;;;;;;6.33;5.33;;;;;19.25;40.50;101033.81;5076905;28;45632;-53
2022/06/03 05:03:23;;;;;;;;;5.00;5.00;;;;;19.32;40.58;101044.69;5077126;28;45403;-53
2022/06/03 05:06:26;;;;;;;;;5.33;5.00;;;;;19.34;40.61;101046.16;5075613;28;46412;-54
2022/06/03 05:09:13;;;;;;;;;4.67;4.00;;;;;19.37;40.81;101040.34;5076789;28;45343;-55
2022/06/03 05:12:22;;;;;;;;;5.33;5.33;;;;;19.39;40.85;101041.00;5077007;28;45427;-54
2022/06/03 05:14:59;;;;;;;;;6.00;6.00;;;;;19.42;40.62;101034.34;5077009;28;45491;-57
2022/06/03 05:17:51;;;;;;;;;5.00;4.67;;;;;19.45;40.35;101025.88;5076302;28;47236;-59
2022/06/03 05:20:34;;;;;;;;;5.00;5.00;;;;;19.48;40.65;101035.44;5076361;28;45328;-54
2022/06/03 05:23:43;;;;;;;;;5.67;5.67;;;;;19.51;40.64;101040.44;5076748;28;45252;-59
2022/06/03 05:26:27;;;;;;;;;5.00;5.00;;;;;19.51;41.17;101046.69;5068143;28;45426;-54
2022/06/03 05:28:55;;;;;;;;;4.00;4.00;;;;;19.55;41.03;101042.56;5076194;28;46376;-52
2022/06/03 05:31:34;;;;;;;;;8.00;5.67;;;;;19.60;40.82;101042.78;5075745;28;45444;-55
2022/06/03 05:34:12;;;;;;;;;6.00;4.00;;;;;19.65;40.67;101029.56;5092162;27;45416;-59
2022/06/03 05:36:58;;;;;;;;;5.67;5.67;;;;;19.69;40.49;101036.22;5076668;28;45478;-54
2022/06/03 05:40:00;;;;;;;;;5.00;4.67;;;;;19.77;40.75;101031.72;5076185;28;45490;-54
2022/06/03 05:42:50;;;;;;;;;6.33;6.00;;;;;19.86;40.71;101033.19;5076315;28;45446;-55
2022/06/03 05:45:51;;;;;;;;;3.67;3.33;;;;;19.94;40.81;101031.16;5078563;28;45388;-53
2022/06/03 05:48:25;;;;;;;;;7.67;6.67;;;;;20.05;40.59;101018.09;5080317;28;45564;-54
2022/06/03 05:51:18;;;;;;;;;7.00;6.00;;;;;20.12;40.02;101014.41;5079923;28;45359;-53
2022/06/03 05:53:44;;;;;;;;;7.00;7.00;;;;;20.24;40.54;101011.94;5079683;28;45391;-55
2022/06/03 05:56:43;;;;;;;;;5.00;4.00;;;;;20.31;39.99;101009.25;5079787;28;45308;-55
2022/06/03 05:59:17;;;;;;;;;5.33;5.33;;;;;20.41;40.45;101001.59;5079966;28;45306;-54
2022/06/03 06:01:57;;;;;;;;;6.75;5.00;;;;;20.47;39.93;101000.75;5079154;28;46451;-54
2022/06/03 06:04:59;;;;;;;;;6.33;6.33;;;;;20.53;40.44;101018.91;5079324;28;45414;-54
2022/06/03 06:07:35;;;;;;;;;8.00;5.00;;;;;20.60;40.30;101022.41;5079579;28;45310;-55
2022/06/03 06:10:15;;;;;;;;;8.00;6.00;;;;;20.66;41.02;101018.09;5079672;28;45380;-59
2022/06/03 06:13:21;;;;;;;;;7.00;6.00;;;;;20.72;40.19;101021.81;5079362;28;45372;-51
2022/06/03 06:15:46;;;;;;;;;9.00;7.00;;;;;20.74;40.53;101020.59;5079250;28;45255;-59
2022/06/03 06:18:42;;;;;;;;;9.33;8.33;;;;;20.77;39.87;101025.56;5079115;28;45450;-58
2022/06/03 06:21:17;;;;;;;;;6.00;6.00;;;;;20.83;40.01;101015.81;5079460;28;45479;-55
2022/06/03 06:24:02;;;;;;;;;6.33;6.33;;;;;20.85;39.98;101017.25;5078525;27;45400;-55
2022/06/03 06:26:53;;;;;;;;;9.67;7.33;;;;;20.92;41.30;101017.25;5079290;28;45504;-60
2022/06/03 06:29:40;;;;;;;;;10.33;7.00;;;;;20.92;40.48;101012.69;5078993;27;45360;-60
2022/06/03 06:32:23;;;;;;;;;7.33;7.00;;;;;21.03;40.83;101022.06;5079405;28;45292;-60
2022/06/03 06:35:29;;;;;;;;;8.00;7.25;;;;;21.10;41.05;101017.44;5079232;28;46410;-59
2022/06/03 06:38:21;;;;;;;;;9.75;7.00;;;;;21.23;40.21;101018.47;5078847;28;45403;-61
2022/06/03 06:41:14;;;;;;;;;9.50;8.75;;;;;21.33;40.36;101010.81;5079187;28;45170;-58
2022/06/03 06:43:50;;;;;;;;;8.25;8.25;;;;;21.42;40.07;101009.53;5079513;28;45830;-55
2022/06/03 06:46:30;;;;;;;;;10.50;8.25;;;;;21.53;39.62;101010.75;5078913;28;46351;-59
2022/06/03 06:49:16;;;;;;;;;4.00;4.00;;;;;21.65;39.73;101007.16;5079062;28;45359;-54
2022/06/03 06:52:02;;;;;;;;;7.00;7.00;;;;;21.75;39.58;101009.44;5079236;28;45430;-53
2022/06/03 06:54:53;;;;;;;;;7.25;7.25;;;;;21.82;39.53;101012.94;5079242;28;45382;-55
2022/06/03 06:57:24;;;;;;;;;9.75;8.75;;;;;21.94;39.15;101002.28;5077799;28;45360;-60
2022/06/03 07:00:19;;;;;;;;;8.50;8.50;;;;;21.98;39.07;100999.97;5078804;28;45578;-59
2022/06/03 07:02:58;;;;;;;;;7.00;7.00;;;;;22.00;38.95;101001.44;5078931;28;45433;-56
2022/06/03 07:05:58;;;;;;;;;9.00;8.00;;;;;22.03;39.27;101000.97;5079048;28;45670;-60
2022/06/03 07:08:33;;;;;;;;;9.75;7.75;;;;;22.14;38.96;101008.47;5078912;28;45392;-61
2022/06/03 07:11:02;;;;;;;;;10.75;8.00;;;;;22.21;38.80;101004.91;5078717;28;45469;-55
2022/06/03 07:13:41;;;;;;;;;9.00;9.00;;;;;22.33;39.10;101003.13;5078690;28;45339;-59
2022/06/03 07:16:15;;;;;;;;;10.50;7.75;;;;;22.66;38.57;100997.50;5078176;28;45463;-58
2022/06/03 07:22:12;;;;;;;;;8.00;8.00;;;;;23.11;37.91;100995.47;5078491;28;45426;-58
2022/06/03 07:24:37;;;;;;;;;7.75;7.00;;;;;23.22;37.78;100998.50;5078359;27;45355;-61
2022/06/03 07:27:12;;;;;;;;;11.75;10.50;;;;;23.31;37.38;100998.00;5078721;28;45390;-58
2022/06/03 07:29:47;;;;;;;;;8.25;8.00;;;;;23.38;37.71;100992.50;5078201;28;45402;-58
2022/06/03 07:32:30;;;;;;;;;9.50;8.00;;;;;23.47;37.38;100993.88;5077951;28;45237;-59
2022/06/03 07:35:03;;;;;;;;;10.00;8.50;;;;;23.62;37.24;100985.34;5078169;28;45370;-54
2022/06/03 07:37:45;;;;;;;;;5.50;5.25;;;;;23.96;36.70;101013.78;5078372;28;45379;-57
2022/06/03 07:40:42;;;;;;;;;8.00;7.25;;;;;24.18;36.72;101016.00;5078093;28;46300;-56
2022/06/03 07:43:17;;;;;;;;;7.50;7.25;;;;;24.11;36.66;101016.13;5078042;28;45429;-58
2022/06/03 07:45:55;;;;;;;;;6.25;6.25;;;;;24.00;37.31;101019.59;5078225;28;45372;-61
2022/06/03 07:48:23;;;;;;;;;9.50;8.50;;;;;23.95;37.45;101017.56;5078431;28;45303;-57
2022/06/03 07:50:57;;;;;;;;;9.00;9.00;;;;;23.82;36.93;101010.41;5077304;28;45447;-58
2022/06/03 07:53:31;;;;;;;;;7.80;7.60;;;;;23.78;37.66;101011.09;5077741;28;45225;-62
2022/06/03 07:55:57;;;;;;;;;9.75;8.00;;;;;23.81;37.62;101007.94;5078128;28;45275;-63
2022/06/03 07:58:25;;;;;;;;;8.75;8.00;;;;;23.84;37.77;101015.59;5077763;28;45412;-62
2022/06/03 08:00:51;;;;;;;;;8.75;7.25;;;;;23.72;38.38;101018.25;5074867;28;46893;-56
2022/06/03 08:03:19;;;;;;;;;8.00;8.00;;;;;23.73;38.63;101025.34;5074266;28;45402;-60
2022/06/03 08:05:47;;;;;;;;;10.75;7.75;;;;;23.71;38.89;101016.59;5073014;28;45422;-58
2022/06/03 08:11:10;;;;;;;;;11.25;8.25;;;;;23.86;38.88;101013.50;5074514;28;45514;-57
2022/06/03 08:13:38;;;;;;;;;8.50;8.00;;;;;23.94;38.14;101015.91;5075424;28;45434;-55
2022/06/03 08:16:07;;;;;;;;;8.00;8.00;;;;;24.10;38.41;101009.00;5074798;28;45874;-61
2022/06/03 08:18:40;;;;;;;;;7.50;7.50;;;;;24.35;38.10;101006.97;5075019;28;45409;-58
2022/06/03 08:21:09;;;;;;;;;8.00;8.00;;;;;24.74;37.48;101003.94;5074810;28;45458;-61
2022/06/03 08:23:36;;;;;;;;;9.60;8.60;;;;;24.91;37.40;101004.88;5076585;27;45898;-59
2022/06/03 08:26:09;;;;;;;;;7.40;7.00;;;;;25.19;37.04;101011.53;5075073;27;45462;-60
2022/06/03 08:28:38;;;;;;;;;11.75;9.00;;;;;25.20;35.88;100966.91;5075393;28;45421;-60
2022/06/03 08:31:06;;;;;;;;;9.75;9.00;;;;;25.63;35.75;101010.09;5074614;27;45606;-61
2022/06/03 08:33:46;;;;;;;;;11.40;8.00;;;;;25.76;35.79;100998.09;5074384;28;45442;-60
2022/06/03 08:36:16;;;;;;;;;8.00;7.50;;;;;25.82;35.79;100988.97;5074686;28;45463;-60
2022/06/03 08:39:07;;;;;;;;;10.50;8.25;;;;;26.16;35.89;101000.00;5075091;28;45482;-62
2022/06/03 08:41:41;;;;;;;;;8.00;8.00;;;;;26.91;34.67;100994.22;5074245;27;46089;-61
2022/06/03 08:44:22;;;;;;;;;8.60;6.80;;;;;27.48;34.08;100985.81;5074647;28;45441;-60
2022/06/03 08:47:31;;;;;;;;;9.40;8.40;;;;;27.71;33.52;100983.91;5074046;28;45403;-59
2022/06/03 08:50:06;;;;;;;;;17.00;11.50;;;;;27.66;33.18;100975.66;5052261;28;45429;-55
2022/06/03 08:52:57;;;;;;;;;9.20;7.60;;;;;27.36;33.45;100972.28;5051521;28;46068;-53
2022/06/03 08:55:39;;;;;;;;;12.20;9.20;;;;;27.13;33.89;100972.47;5031713;28;45527;-59
2022/06/03 08:58:30;;;;;;;;;13.20;9.00;;;;;26.75;34.51;100975.97;5031999;28;45510;-56
2022/06/03 09:01:04;;;;;;;;;9.60;8.20;;;;;26.41;34.61;100959.53;5032041;28;46389;-62
2022/06/03 09:03:38;;;;;;;;;9.20;8.20;;;;;26.26;35.14;100970.19;5031400;28;46230;-56
2022/06/03 09:06:14;;;;;;;;;10.80;7.80;;;;;26.14;35.23;100972.97;5031892;28;45933;-54
2022/06/03 09:08:58;;;;;;;;;8.40;7.60;;;;;26.09;35.91;100968.25;5032075;28;45529;-59
2022/06/03 09:11:36;;;;;;;;;7.75;7.75;;;;;26.06;36.36;100982.38;5032295;28;45585;-54
2022/06/03 09:14:06;;;;;;;;;8.00;7.40;;;;;26.11;35.47;100960.66;5031276;28;45476;-55
2022/06/03 09:16:35;;;;;;;;;8.00;6.80;;;;;26.23;36.15;100965.22;5031585;28;45539;-57
2022/06/03 09:19:15;;;;;;;;;9.80;9.20;;;;;26.33;35.70;100976.31;5031715;28;45499;-55
2022/06/03 09:21:46;;;;;;;;;10.50;10.50;;;;;26.27;35.44;100964.50;5041722;28;45451;-60
2022/06/03 09:24:23;;;;;;;;;8.80;8.80;;;;;26.20;35.52;100974.72;5034523;28;45507;-59
2022/06/03 09:26:57;;;;;;;;;11.60;11.40;;;;;25.98;35.98;100976.47;5034935;28;45526;-57
2022/06/03 09:29:24;;;;;;;;;10.80;9.00;;;;;25.64;37.04;100960.81;5035173;28;45572;-60
2022/06/03 09:31:54;;;;;;;;;10.25;8.25;;;;;25.51;37.46;100988.31;5049787;28;45525;-61
2022/06/03 09:34:31;;;;;;;;;12.25;12.25;;;;;25.27;37.53;100995.69;5077399;28;45529;-58
2022/06/03 09:36:56;;;;;;;;;12.80;11.00;;;;;25.03;38.26;101005.72;5077512;28;45456;-58
2022/06/03 09:39:23;;;;;;;;;14.75;13.00;;;;;24.88;38.15;101038.00;5077577;28;45329;-60
2022/06/03 09:41:55;;;;;;;;;11.00;10.25;;;;;24.66;39.01;101039.63;5077332;28;45482;-62
2022/06/03 09:44:23;;;;;;;;;12.00;10.50;;;;;24.68;39.39;101024.72;5075332;27;45782;-61
2022/06/03 09:46:57;;;;;;;;;10.40;10.40;;;;;24.74;39.46;101025.69;5092767;27;45437;-60
2022/06/03 09:49:24;;;;;;;;;15.25;12.75;;;;;24.80;39.81;101028.28;5076025;28;45494;-59
2022/06/03 09:51:57;;;;;;;;;9.00;8.75;;;;;24.86;40.11;101046.41;5077190;27;45401;-62
2022/06/03 09:54:31;;;;;;;;;11.50;9.75;;;;;25.05;39.49;101028.09;5076780;28;46140;-56
2022/06/03 09:57:26;;;;;;;;;15.75;12.50;;;;;25.50;39.27;101043.88;5076942;28;45439;-61
2022/06/03 10:00:10;;;;;;;;;17.50;14.50;;;;;25.74;38.31;101046.53;5076918;27;45507;-59
2022/06/03 10:02:35;;;;;;;;;10.00;9.75;;;;;25.66;38.51;101041.47;5076686;27;45457;-60
2022/06/03 10:05:04;;;;;;;;;13.25;12.00;;;;;25.40;38.75;101030.00;5076207;28;45842;-60
2022/06/03 10:07:30;;;;;;;;;16.00;11.20;;;;;25.26;39.44;101031.31;5076861;28;45469;-60
2022/06/03 10:12:49;;;;;;;;;14.00;14.00;;;;;25.45;39.38;101010.22;5077317;28;45420;-59
2022/06/03 10:18:11;;;;;;;;;15.40;11.00;;;;;25.63;39.29;101010.09;5076358;28;45332;-60
2022/06/03 10:20:37;;;;;;;;;16.00;13.25;;;;;25.50;39.52;101003.00;5076128;28;45469;-61
2022/06/03 10:23:04;;;;;;;;;13.25;13.25;;;;;25.55;39.69;101003.13;5076567;27;45621;-61
2022/06/03 10:25:29;;;;;;;;;17.25;12.75;;;;;25.56;40.20;101006.66;5076626;27;47029;-57
2022/06/03 10:27:56;;;;;;;;;15.00;13.25;;;;;25.52;40.60;101008.22;5076571;28;45481;-61
2022/06/03 10:30:28;;;;;;;;;12.25;12.00;;;;;25.40;40.65;101008.22;5075759;27;45606;-60
2022/06/03 10:32:54;;;;;;;;;15.25;14.00;;;;;25.43;41.19;101013.19;5076102;27;45386;-63
2022/06/03 10:35:26;;;;;;;;;13.75;12.25;;;;;25.55;40.75;101005.00;5076227;28;46278;-62
2022/06/03 10:37:58;;;;;;;;;15.60;14.20;;;;;25.92;40.23;101004.72;5076129;27;45366;-58
2022/06/03 10:40:26;;;;;;;;;15.40;11.60;;;;;26.31;39.01;100995.66;5076455;27;45450;-62
2022/06/03 10:42:57;;;;;;;;;16.50;15.75;;;;;26.95;38.00;100986.38;5076401;28;45485;-59
2022/06/03 10:45:40;;;;;;;;;2.75;1.00;;;;;27.86;37.62;100997.81;5076091;27;45944;-58
2022/06/03 10:48:25;;;;;;;;;13.80;13.60;;;;;28.18;37.01;101003.34;5075998;27;45500;-58
2022/06/03 10:50:51;;;;;;;;;22.80;13.40;;;;;28.01;36.78;101000.69;5076175;28;45502;-59
2022/06/03 11:02:00;;;;;;;;;15.00;9.80;;;;;28.00;37.06;100996.31;5075907;27;45545;-54
2022/06/03 11:04:29;;;;;;;;;11.20;10.00;;;;;27.92;37.55;100999.50;5075924;28;45387;-53
2022/06/03 11:07:00;;;;;;;;;12.60;10.00;;;;;27.86;37.81;100992.34;5075793;28;47054;-56
2022/06/03 11:09:26;;;;;;;;;13.00;10.00;;;;;27.89;37.90;101008.19;5075982;28;45299;-55
2022/06/03 11:11:58;;;;;;;;;14.00;12.50;;;;;27.92;38.14;101013.16;5075646;28;45668;-54
2022/06/03 11:14:29;;;;;;;;;12.75;12.25;;;;;27.90;38.06;101020.81;5075953;28;45398;-56
2022/06/03 11:17:20;;;;;;;;;15.00;12.80;;;;;27.78;38.70;101025.59;5075027;28;47171;-55
2022/06/03 11:19:56;;;;;;;;;13.20;13.00;;;;;27.63;38.99;101037.09;5075133;28;45474;-54
2022/06/03 11:22:34;;;;;;;;;18.40;13.20;;;;;27.27;39.30;101033.88;5075656;28;45756;-55
2022/06/03 11:25:03;;;;;;;;;12.80;12.20;;;;;27.06;39.93;101040.06;5075625;28;45517;-54
2022/06/03 11:28:04;;;;;;;;;17.60;15.60;;;;;26.75;41.09;101039.56;5074973;28;45704;-55
2022/06/03 11:30:43;;;;;;;;;12.00;11.00;;;;;26.50;40.45;101039.09;5075437;28;45513;-55
2022/06/03 11:33:23;;;;;;;;;15.40;15.40;;;;;26.20;41.55;101045.59;5075522;28;45391;-53
2022/06/03 11:36:07;;;;;;;;;13.80;12.60;;;;;25.93;42.44;101039.06;5075430;28;45506;-57
2022/06/03 11:38:46;;;;;;;;;13.25;11.50;;;;;25.74;42.53;101044.63;5074912;28;45443;-56
2022/06/03 11:41:20;;;;;;;;;13.80;12.00;;;;;25.46;42.24;101044.59;5075123;28;45506;-53
2022/06/03 11:43:53;;;;;;;;;14.60;11.80;;;;;25.27;43.49;101052.03;5075010;28;45470;-57
2022/06/03 11:46:28;;;;;;;;;13.25;10.00;;;;;25.06;44.42;101045.25;5075484;28;45583;-54
2022/06/03 11:48:54;;;;;;;;;18.50;13.25;;;;;24.93;44.36;101054.47;5075044;28;46058;-54
2022/06/03 11:51:20;;;;;;;;;17.00;15.40;;;;;24.82;45.90;101056.09;5074957;28;45556;-56
2022/06/03 11:53:48;;;;;;;;;8.25;7.75;;;;;24.75;45.43;101055.38;5075144;28;45438;-55
2022/06/03 11:56:18;;;;;;;;;16.00;13.50;;;;;24.61;45.05;101054.75;5075331;28;45452;-56
2022/06/03 11:58:58;;;;;;;;;9.75;9.75;;;;;24.52;45.40;101056.13;5075097;28;46240;-52
2022/06/03 12:01:29;;;;;;;;;9.80;9.80;;;;;24.39;46.25;101064.47;5075162;28;45947;-55
2022/06/03 12:04:17;;;;;;;;;11.00;11.00;;;;;24.22;45.30;101064.25;5074949;28;45465;-54
2022/06/03 12:07:04;;;;;;;;;12.75;11.00;;;;;24.04;46.76;101053.41;5075587;28;45422;-54
2022/06/03 12:09:35;;;;;;;;;12.25;9.75;;;;;23.87;48.39;101064.06;5075097;27;45557;-55
2022/06/03 12:15:39;;;;;;;;;8.75;8.25;;;;;23.52;49.05;101063.78;5075094;28;45442;-54
2022/06/03 12:18:09;;;;;;;;;16.75;11.75;;;;;23.39;50.50;101062.88;5067243;28;45606;-54
2022/06/03 12:20:52;;;;;;;;;11.00;11.00;;;;;23.29;52.07;101067.97;5074926;28;46200;-54
2022/06/03 12:23:18;;;;;;;;;11.25;11.00;;;;;23.19;52.83;101066.81;5074775;28;45632;-55
2022/06/03 12:25:53;;;;;;;;;12.50;12.50;;;;;23.09;51.43;101062.72;5075187;27;45817;-54
2022/06/03 12:28:41;;;;;;;;;12.75;10.75;;;;;23.01;52.66;101054.03;5075278;28;45465;-55
2022/06/03 12:31:07;;;;;;;;;10.25;8.75;;;;;22.97;55.53;101069.91;5074850;28;46541;-53
2022/06/03 12:33:33;;;;;;;;;13.00;9.50;;;;;22.94;55.63;101064.91;5074674;28;45458;-52
2022/06/03 12:36:01;;;;;;;;;10.50;10.50;;;;;22.92;54.71;101061.59;5074730;28;45464;-53
2022/06/03 12:38:31;;;;;;;;;11.00;11.00;;;;;22.83;53.97;101058.28;5074966;28;45388;-55
2022/06/03 12:41:00;;;;;;;;;12.00;9.00;;;;;22.88;54.93;101066.63;5074542;28;46142;-54
2022/06/03 12:43:28;;;;;;;;;12.25;10.50;;;;;22.87;56.15;101070.34;5074394;28;45462;-52
2022/06/03 12:46:38;;;;;;;;;12.75;11.00;;;;;22.84;56.32;101064.56;5074705;28;45519;-54
2022/06/03 12:49:16;;;;;;;;;10.50;10.00;;;;;22.79;55.27;101064.38;5050133;28;45583;-55
2022/06/03 12:52:05;;;;;;;;;9.75;9.50;;;;;22.73;55.90;101065.25;5051692;28;45490;-52